Al-Jouf, Saudi Arabia

6:05 AM AST on September 24, 2014 (GMT +0300)
Al Jouf | Change Station
CLOSE
Current Station
Airport
Location: Al-Jouf,
Elevation: 2260 ft
Nearby Weather Stations

Elev 2260 ft 29.79 °N, 40.10 °E | Updated 1 hour ago

Clear
Clear
77 °F
Feels Like 77 °F
N
6
Wind Variable Wind from NE

Today
High -- | Low -- °F
--% Chance of Precip.
Yesterday
High -- | Low -- °F
Precip. -- in
6:08 AM 6:14 PM
Waning Crescent, 0% visible
Pressure 30.01 in
Visibility -9999.0 miles
Clouds
Dew Point 37 °F
Humidity 24%
Rainfall 0.00 in
Snow Depth Not available.
UV Not available.
Pollen Not available.
Air Quality Not available.
Flu Activity Not available.
METAR OESK 240200Z 05005KT CAVOK 25/03 Q1016 NOSIG

More Conditions Fewer Conditions

Pressure 30.01 in
Visibility -9999.0 miles
Clouds
Dew Point 37 °F
Humidity 24%
Rainfall 0.00 in
Snow Depth Not available.
UV Not available.
Pollen Not available.
Air Quality Not available.
Flu Activity Not available.
METAR OESK 240200Z 05005KT CAVOK 25/03 Q1016 NOSIG

More Conditions Fewer Conditions

10-Day Weather Forecast

Almanac

Astronomy

Sep. 24, 2014 Rise Set
Actual Time 6:08 AM AST 6:14 PM AST
Civil Twilight 5:45 AM AST 6:37 PM AST
Nautical Twilight 5:17 AM AST 7:05 PM AST
Astronomical Twilight 4:49 AM AST 7:33 PM AST
Moon 6:07 AM AST 6:16 PM AST
Length of Visible Light 12h 52m
Length of Day
12h 05m
Tomorrow will be 1m 46s shorter.
Waning Crescent, 0% of the Moon is Illuminated
Sep 23
Waning Crescent
Sep 24
New
Oct 1
First Quarter
Oct 8
Full
Oct 15
Last Quarter

Yesterday's Extremes

Country Highs Country Lows

Community

WunderPhotos

Upload Photos

1,755,870 photos uploaded!

WunderBlogs® & News

Nearby

Snow Depth

Not available.

Earthquake Activity

City Distance Mag. Time & Date
No recent earthquake activity has been reported nearby.
Minimum magnitude displayed is 2.5.

Coastal Water Temperatures

Place Temperature
No Stations Reporting

Nearby Weather Stations